sensor_id;sensor_type;location;lat;lon;timestamp;pressure;altitude;pressure_sealevel;temperature;humidity
51315;BME280;65787;59.922;10.742;2023-03-19T00:02:09;100651.19;;;28.16;24.94
51315;BME280;65787;59.922;10.742;2023-03-19T00:04:34;100646.19;;;28.18;24.62
51315;BME280;65787;59.922;10.742;2023-03-19T00:07:00;100657.53;;;28.16;24.57
51315;BME280;65787;59.922;10.742;2023-03-19T00:09:25;100653.63;;;28.17;24.78
51315;BME280;65787;59.922;10.742;2023-03-19T00:11:51;100650.06;;;28.17;24.71
51315;BME280;65787;59.922;10.742;2023-03-19T00:14:17;100651.81;;;28.13;24.60
51315;BME280;65787;59.922;10.742;2023-03-19T00:16:43;100641.50;;;28.05;24.33
51315;BME280;65787;59.922;10.742;2023-03-19T00:19:08;100656.38;;;28.17;24.25
51315;BME280;65787;59.922;10.742;2023-03-19T00:21:34;100640.47;;;28.14;24.22
51315;BME280;65787;59.922;10.742;2023-03-19T00:23:59;100652.75;;;28.08;24.38
51315;BME280;65787;59.922;10.742;2023-03-19T00:26:29;100648.31;;;28.07;24.14
51315;BME280;65787;59.922;10.742;2023-03-19T00:28:56;100653.75;;;28.12;24.09
51315;BME280;65787;59.922;10.742;2023-03-19T00:31:22;100659.16;;;28.04;24.34
51315;BME280;65787;59.922;10.742;2023-03-19T00:33:48;100656.78;;;27.83;24.78
51315;BME280;65787;59.922;10.742;2023-03-19T00:36:14;100665.22;;;27.92;24.77
51315;BME280;65787;59.922;10.742;2023-03-19T00:38:44;100659.31;;;27.79;25.40
51315;BME280;65787;59.922;10.742;2023-03-19T00:41:09;100663.63;;;27.86;24.95
51315;BME280;65787;59.922;10.742;2023-03-19T00:43:35;100664.25;;;27.83;25.32
51315;BME280;65787;59.922;10.742;2023-03-19T00:46:00;100631.72;;;27.66;25.59
51315;BME280;65787;59.922;10.742;2023-03-19T00:48:26;100638.47;;;27.73;25.26
51315;BME280;65787;59.922;10.742;2023-03-19T00:50:52;100657.16;;;27.76;25.67
51315;BME280;65787;59.922;10.742;2023-03-19T00:53:17;100663.94;;;27.84;25.56
51315;BME280;65787;59.922;10.742;2023-03-19T00:55:42;100668.41;;;27.80;25.55
51315;BME280;65787;59.922;10.742;2023-03-19T00:58:08;100657.28;;;27.71;25.57
51315;BME280;65787;59.922;10.742;2023-03-19T01:00:36;100676.91;;;27.84;25.38
51315;BME280;65787;59.922;10.742;2023-03-19T01:03:01;100665.66;;;27.80;25.50
51315;BME280;65787;59.922;10.742;2023-03-19T01:05:28;100668.03;;;27.87;25.34
51315;BME280;65787;59.922;10.742;2023-03-19T01:07:54;100669.13;;;27.86;25.67
51315;BME280;65787;59.922;10.742;2023-03-19T01:10:21;100649.59;;;27.68;25.57
51315;BME280;65787;59.922;10.742;2023-03-19T01:12:47;100670.66;;;27.78;25.58
51315;BME280;65787;59.922;10.742;2023-03-19T01:15:12;100660.13;;;27.80;25.61
51315;BME280;65787;59.922;10.742;2023-03-19T01:17:38;100632.13;;;27.59;25.50
51315;BME280;65787;59.922;10.742;2023-03-19T01:20:05;100667.91;;;27.78;25.56
51315;BME280;65787;59.922;10.742;2023-03-19T01:22:37;100661.28;;;27.79;25.55
51315;BME280;65787;59.922;10.742;2023-03-19T01:25:03;100660.97;;;27.80;25.55
51315;BME280;65787;59.922;10.742;2023-03-19T01:27:29;100641.19;;;27.59;25.25
51315;BME280;65787;59.922;10.742;2023-03-19T01:29:55;100648.88;;;27.63;25.43
51315;BME280;65787;59.922;10.742;2023-03-19T01:32:20;100659.84;;;27.81;25.13
51315;BME280;65787;59.922;10.742;2023-03-19T01:34:45;100652.28;;;27.73;25.50
51315;BME280;65787;59.922;10.742;2023-03-19T01:37:11;100608.97;;;27.41;25.53
51315;BME280;65787;59.922;10.742;2023-03-19T01:39:36;100647.75;;;27.64;25.18
51315;BME280;65787;59.922;10.742;2023-03-19T01:42:02;100649.38;;;27.65;25.47
51315;BME280;65787;59.922;10.742;2023-03-19T01:44:36;100647.16;;;27.67;25.23
51315;BME280;65787;59.922;10.742;2023-03-19T01:47:05;100657.25;;;27.57;25.28
51315;BME280;65787;59.922;10.742;2023-03-19T01:49:33;100650.19;;;27.51;25.09
51315;BME280;65787;59.922;10.742;2023-03-19T01:52:01;100651.22;;;27.55;25.29
51315;BME280;65787;59.922;10.742;2023-03-19T01:54:28;100650.47;;;27.50;25.09
51315;BME280;65787;59.922;10.742;2023-03-19T01:57:02;100646.63;;;27.51;25.14
51315;BME280;65787;59.922;10.742;2023-03-19T01:59:43;100646.91;;;27.49;25.32
51315;BME280;65787;59.922;10.742;2023-03-19T02:02:32;100651.81;;;27.52;25.41
51315;BME280;65787;59.922;10.742;2023-03-19T02:07:33;100670.31;;;27.52;25.23
51315;BME280;65787;59.922;10.742;2023-03-19T02:10:01;100667.13;;;27.45;25.49
51315;BME280;65787;59.922;10.742;2023-03-19T02:12:28;100663.72;;;27.34;25.34
51315;BME280;65787;59.922;10.742;2023-03-19T02:14:53;100663.34;;;27.40;25.54
51315;BME280;65787;59.922;10.742;2023-03-19T02:17:20;100662.31;;;27.36;25.16
51315;BME280;65787;59.922;10.742;2023-03-19T02:20:16;100659.03;;;27.34;25.08
51315;BME280;65787;59.922;10.742;2023-03-19T02:25:31;100660.34;;;27.37;25.28
51315;BME280;65787;59.922;10.742;2023-03-19T02:27:57;100653.31;;;27.31;25.19
51315;BME280;65787;59.922;10.742;2023-03-19T02:30:27;100656.88;;;27.31;25.07
51315;BME280;65787;59.922;10.742;2023-03-19T02:32:53;100645.09;;;27.26;25.16
51315;BME280;65787;59.922;10.742;2023-03-19T02:35:18;100662.38;;;27.31;24.91
51315;BME280;65787;59.922;10.742;2023-03-19T02:37:44;100651.44;;;27.26;25.24
51315;BME280;65787;59.922;10.742;2023-03-19T02:40:17;100653.66;;;27.24;24.93
51315;BME280;65787;59.922;10.742;2023-03-19T02:42:44;100661.06;;;27.29;24.86
51315;BME280;65787;59.922;10.742;2023-03-19T02:45:10;100674.09;;;27.23;25.07
51315;BME280;65787;59.922;10.742;2023-03-19T02:47:36;100673.34;;;27.17;25.01
51315;BME280;65787;59.922;10.742;2023-03-19T02:50:01;100628.81;;;26.91;25.09
51315;BME280;65787;59.922;10.742;2023-03-19T02:52:27;100655.84;;;27.08;25.07
51315;BME280;65787;59.922;10.742;2023-03-19T02:54:53;100658.09;;;27.06;25.05
51315;BME280;65787;59.922;10.742;2023-03-19T02:57:18;100653.59;;;27.10;24.88
51315;BME280;65787;59.922;10.742;2023-03-19T02:59:44;100674.75;;;27.15;24.38
51315;BME280;65787;59.922;10.742;2023-03-19T03:02:10;100665.00;;;27.03;24.97
51315;BME280;65787;59.922;10.742;2023-03-19T03:04:35;100662.47;;;27.07;24.67
51315;BME280;65787;59.922;10.742;2023-03-19T03:07:03;100667.97;;;27.07;24.83
51315;BME280;65787;59.922;10.742;2023-03-19T03:09:29;100656.16;;;27.07;24.70
51315;BME280;65787;59.922;10.742;2023-03-19T03:11:55;100650.84;;;27.10;24.60
51315;BME280;65787;59.922;10.742;2023-03-19T03:14:20;100660.44;;;27.13;24.60
51315;BME280;65787;59.922;10.742;2023-03-19T03:16:46;100659.41;;;27.09;24.69
51315;BME280;65787;59.922;10.742;2023-03-19T03:19:11;100659.94;;;27.11;24.44
51315;BME280;65787;59.922;10.742;2023-03-19T03:21:38;100663.59;;;27.06;24.78
51315;BME280;65787;59.922;10.742;2023-03-19T03:24:04;100652.75;;;27.10;24.74
51315;BME280;65787;59.922;10.742;2023-03-19T03:26:29;100651.66;;;27.11;24.67
51315;BME280;65787;59.922;10.742;2023-03-19T03:28:55;100654.63;;;27.14;24.73
51315;BME280;65787;59.922;10.742;2023-03-19T03:31:20;100654.41;;;27.11;24.58
51315;BME280;65787;59.922;10.742;2023-03-19T03:33:46;100649.63;;;27.16;24.58
51315;BME280;65787;59.922;10.742;2023-03-19T03:36:12;100662.47;;;27.07;24.62
51315;BME280;65787;59.922;10.742;2023-03-19T03:38:38;100638.72;;;26.92;24.26
51315;BME280;65787;59.922;10.742;2023-03-19T03:41:04;100660.63;;;27.02;24.36
51315;BME280;65787;59.922;10.742;2023-03-19T03:43:30;100670.97;;;27.11;24.31
51315;BME280;65787;59.922;10.742;2023-03-19T03:45:55;100666.88;;;27.08;24.37
51315;BME280;65787;59.922;10.742;2023-03-19T03:48:21;100669.84;;;27.12;24.29
51315;BME280;65787;59.922;10.742;2023-03-19T03:50:47;100670.22;;;27.05;24.40
51315;BME280;65787;59.922;10.742;2023-03-19T03:53:12;100641.47;;;26.92;24.35
51315;BME280;65787;59.922;10.742;2023-03-19T03:55:38;100660.19;;;26.95;24.29
51315;BME280;65787;59.922;10.742;2023-03-19T03:58:04;100657.19;;;26.92;24.38
51315;BME280;65787;59.922;10.742;2023-03-19T04:00:30;100654.88;;;26.99;24.03
51315;BME280;65787;59.922;10.742;2023-03-19T04:02:56;100640.59;;;26.97;24.05
51315;BME280;65787;59.922;10.742;2023-03-19T04:05:21;100641.69;;;26.96;24.18
51315;BME280;65787;59.922;10.742;2023-03-19T04:07:47;100644.16;;;26.97;24.08
51315;BME280;65787;59.922;10.742;2023-03-19T04:10:13;100636.66;;;26.84;24.16
51315;BME280;65787;59.922;10.742;2023-03-19T04:12:39;100651.06;;;26.95;24.05
51315;BME280;65787;59.922;10.742;2023-03-19T04:15:06;100651.97;;;26.90;24.13
51315;BME280;65787;59.922;10.742;2023-03-19T04:17:33;100647.00;;;26.92;24.19
51315;BME280;65787;59.922;10.742;2023-03-19T04:20:00;100652.72;;;26.96;24.04
51315;BME280;65787;59.922;10.742;2023-03-19T04:22:26;100638.50;;;26.89;23.71
51315;BME280;65787;59.922;10.742;2023-03-19T04:24:51;100643.50;;;26.87;23.99
51315;BME280;65787;59.922;10.742;2023-03-19T04:27:17;100636.94;;;26.82;23.92
51315;BME280;65787;59.922;10.742;2023-03-19T04:29:42;100656.97;;;26.88;23.98
51315;BME280;65787;59.922;10.742;2023-03-19T04:32:08;100652.78;;;26.91;23.95
51315;BME280;65787;59.922;10.742;2023-03-19T04:34:33;100630.81;;;26.85;23.82
51315;BME280;65787;59.922;10.742;2023-03-19T04:36:59;100646.63;;;26.99;23.92
51315;BME280;65787;59.922;10.742;2023-03-19T04:39:24;100640.81;;;26.81;23.73
51315;BME280;65787;59.922;10.742;2023-03-19T04:41:51;100642.81;;;26.95;23.69
51315;BME280;65787;59.922;10.742;2023-03-19T04:44:16;100628.38;;;26.84;23.89
51315;BME280;65787;59.922;10.742;2023-03-19T04:46:42;100637.06;;;26.91;23.68
51315;BME280;65787;59.922;10.742;2023-03-19T04:49:10;100636.47;;;26.94;23.46
51315;BME280;65787;59.922;10.742;2023-03-19T04:51:35;100629.56;;;26.97;23.37
51315;BME280;65787;59.922;10.742;2023-03-19T04:54:00;100602.75;;;26.83;23.43
51315;BME280;65787;59.922;10.742;2023-03-19T04:56:26;100609.47;;;26.77;23.32
51315;BME280;65787;59.922;10.742;2023-03-19T04:58:52;100625.53;;;26.89;23.44
51315;BME280;65787;59.922;10.742;2023-03-19T05:01:18;100620.84;;;26.90;23.40
51315;BME280;65787;59.922;10.742;2023-03-19T05:03:43;100621.38;;;26.92;23.29
51315;BME280;65787;59.922;10.742;2023-03-19T05:06:09;100614.69;;;26.79;23.67
51315;BME280;65787;59.922;10.742;2023-03-19T05:08:34;100625.13;;;26.82;23.38
51315;BME280;65787;59.922;10.742;2023-03-19T05:11:00;100618.25;;;26.79;22.98
51315;BME280;65787;59.922;10.742;2023-03-19T05:13:25;100590.41;;;26.62;23.30
51315;BME280;65787;59.922;10.742;2023-03-19T05:15:52;100636.56;;;26.89;23.26
51315;BME280;65787;59.922;10.742;2023-03-19T05:18:19;100639.63;;;26.88;23.19
51315;BME280;65787;59.922;10.742;2023-03-19T05:20:45;100642.91;;;26.90;23.07
51315;BME280;65787;59.922;10.742;2023-03-19T05:23:10;100647.16;;;26.82;23.31
51315;BME280;65787;59.922;10.742;2023-03-19T05:25:36;100655.34;;;26.68;23.39
51315;BME280;65787;59.922;10.742;2023-03-19T05:28:04;100647.13;;;26.63;23.40
51315;BME280;65787;59.922;10.742;2023-03-19T05:30:29;100645.44;;;26.67;23.40
51315;BME280;65787;59.922;10.742;2023-03-19T05:32:57;100650.34;;;26.70;23.27
51315;BME280;65787;59.922;10.742;2023-03-19T05:35:23;100661.97;;;26.67;23.32
51315;BME280;65787;59.922;10.742;2023-03-19T05:37:49;100646.31;;;26.62;22.61
51315;BME280;65787;59.922;10.742;2023-03-19T05:40:14;100660.25;;;26.71;23.00
51315;BME280;65787;59.922;10.742;2023-03-19T05:42:41;100647.13;;;26.63;23.13
51315;BME280;65787;59.922;10.742;2023-03-19T05:45:06;100654.81;;;26.66;23.09
51315;BME280;65787;59.922;10.742;2023-03-19T05:47:32;100662.03;;;26.62;23.47
51315;BME280;65787;59.922;10.742;2023-03-19T05:49:59;100665.34;;;26.59;23.22
51315;BME280;65787;59.922;10.742;2023-03-19T05:52:24;100664.41;;;26.69;23.02
51315;BME280;65787;59.922;10.742;2023-03-19T05:54:50;100666.66;;;26.67;22.93
51315;BME280;65787;59.922;10.742;2023-03-19T05:57:15;100666.41;;;26.63;22.92
51315;BME280;65787;59.922;10.742;2023-03-19T05:59:41;100668.66;;;26.61;22.98
51315;BME280;65787;59.922;10.742;2023-03-19T06:02:07;100668.09;;;26.59;22.92
51315;BME280;65787;59.922;10.742;2023-03-19T06:04:32;100669.47;;;26.61;22.94
51315;BME280;65787;59.922;10.742;2023-03-19T06:06:58;100670.03;;;26.58;22.84
51315;BME280;65787;59.922;10.742;2023-03-19T06:09:24;100668.41;;;26.57;22.78
51315;BME280;65787;59.922;10.742;2023-03-19T06:11:49;100661.66;;;26.69;22.74
51315;BME280;65787;59.922;10.742;2023-03-19T06:14:14;100670.84;;;26.59;22.80
51315;BME280;65787;59.922;10.742;2023-03-19T06:16:40;100675.28;;;26.60;22.59
51315;BME280;65787;59.922;10.742;2023-03-19T06:19:05;100676.38;;;26.59;22.67
51315;BME280;65787;59.922;10.742;2023-03-19T06:21:31;100681.31;;;26.62;22.70
51315;BME280;65787;59.922;10.742;2023-03-19T06:23:57;100676.94;;;26.56;22.45
51315;BME280;65787;59.922;10.742;2023-03-19T06:26:23;100694.09;;;26.53;22.71
51315;BME280;65787;59.922;10.742;2023-03-19T06:28:49;100692.63;;;26.60;22.45
51315;BME280;65787;59.922;10.742;2023-03-19T06:31:14;100697.00;;;26.61;22.58
51315;BME280;65787;59.922;10.742;2023-03-19T06:33:40;100692.97;;;26.54;22.76
51315;BME280;65787;59.922;10.742;2023-03-19T06:36:06;100695.94;;;26.57;22.48
51315;BME280;65787;59.922;10.742;2023-03-19T06:38:32;100700.34;;;26.58;22.58
51315;BME280;65787;59.922;10.742;2023-03-19T06:40:58;100680.97;;;26.44;22.63
51315;BME280;65787;59.922;10.742;2023-03-19T06:43:23;100685.53;;;26.54;22.40
51315;BME280;65787;59.922;10.742;2023-03-19T06:45:48;100686.00;;;26.61;22.32
51315;BME280;65787;59.922;10.742;2023-03-19T06:48:14;100671.88;;;26.44;22.36
51315;BME280;65787;59.922;10.742;2023-03-19T06:50:40;100675.31;;;26.55;22.41
51315;BME280;65787;59.922;10.742;2023-03-19T06:53:06;100687.97;;;26.56;22.33
51315;BME280;65787;59.922;10.742;2023-03-19T06:55:32;100688.81;;;26.56;22.23
51315;BME280;65787;59.922;10.742;2023-03-19T06:57:58;100690.72;;;26.56;22.25
51315;BME280;65787;59.922;10.742;2023-03-19T07:00:23;100688.34;;;26.49;22.23
51315;BME280;65787;59.922;10.742;2023-03-19T07:02:49;100690.94;;;26.59;22.37
51315;BME280;65787;59.922;10.742;2023-03-19T07:05:14;100688.81;;;26.56;22.23
51315;BME280;65787;59.922;10.742;2023-03-19T07:07:40;100678.72;;;26.46;22.25
51315;BME280;65787;59.922;10.742;2023-03-19T07:10:06;100695.38;;;26.60;22.11
51315;BME280;65787;59.922;10.742;2023-03-19T07:12:33;100681.88;;;26.59;22.13
51315;BME280;65787;59.922;10.742;2023-03-19T07:14:58;100683.31;;;26.56;22.05
51315;BME280;65787;59.922;10.742;2023-03-19T07:17:24;100681.31;;;26.62;22.00
51315;BME280;65787;59.922;10.742;2023-03-19T07:19:50;100677.78;;;26.56;22.27
51315;BME280;65787;59.922;10.742;2023-03-19T07:22:16;100681.31;;;26.62;21.93
51315;BME280;65787;59.922;10.742;2023-03-19T07:24:41;100666.59;;;26.48;21.78
51315;BME280;65787;59.922;10.742;2023-03-19T07:27:07;100686.41;;;26.50;22.02
51315;BME280;65787;59.922;10.742;2023-03-19T07:29:32;100690.28;;;26.49;22.02
51315;BME280;65787;59.922;10.742;2023-03-19T07:31:58;100650.28;;;26.32;21.90
51315;BME280;65787;59.922;10.742;2023-03-19T07:34:23;100693.19;;;26.57;21.85
51315;BME280;65787;59.922;10.742;2023-03-19T07:36:48;100695.47;;;26.50;22.15
51315;BME280;65787;59.922;10.742;2023-03-19T07:39:15;100691.69;;;26.46;21.86
51315;BME280;65787;59.922;10.742;2023-03-19T07:41:40;100690.56;;;26.47;22.09
51315;BME280;65787;59.922;10.742;2023-03-19T07:44:09;100689.69;;;26.52;21.90
51315;BME280;65787;59.922;10.742;2023-03-19T07:46:34;100690.81;;;26.51;21.76
51315;BME280;65787;59.922;10.742;2023-03-19T07:49:00;100684.22;;;26.46;21.88
51315;BME280;65787;59.922;10.742;2023-03-19T07:51:25;100678.81;;;26.41;21.70
51315;BME280;65787;59.922;10.742;2023-03-19T07:53:51;100694.91;;;26.53;21.67
51315;BME280;65787;59.922;10.742;2023-03-19T07:56:16;100686.97;;;26.46;21.67
51315;BME280;65787;59.922;10.742;2023-03-19T07:58:42;100701.00;;;26.50;21.83
51315;BME280;65787;59.922;10.742;2023-03-19T08:01:07;100691.97;;;26.44;21.73
51315;BME280;65787;59.922;10.742;2023-03-19T08:03:33;100708.34;;;26.60;21.71
51315;BME280;65787;59.922;10.742;2023-03-19T08:05:58;100710.22;;;26.59;21.73
51315;BME280;65787;59.922;10.742;2023-03-19T08:08:23;100702.59;;;26.56;21.63
51315;BME280;65787;59.922;10.742;2023-03-19T08:10:52;100694.09;;;26.53;21.59
51315;BME280;65787;59.922;10.742;2023-03-19T08:13:18;100711.13;;;26.55;21.71
51315;BME280;65787;59.922;10.742;2023-03-19T08:15:43;100715.28;;;26.52;21.68
51315;BME280;65787;59.922;10.742;2023-03-19T08:18:09;100709.41;;;26.64;21.42
51315;BME280;65787;59.922;10.742;2023-03-19T08:20:34;100703.91;;;26.59;21.50
51315;BME280;65787;59.922;10.742;2023-03-19T08:23:00;100704.41;;;26.66;21.40
51315;BME280;65787;59.922;10.742;2023-03-19T08:25:25;100705.00;;;26.63;21.38
51315;BME280;65787;59.922;10.742;2023-03-19T08:27:51;100690.44;;;26.57;21.33
51315;BME280;65787;59.922;10.742;2023-03-19T08:30:17;100707.22;;;26.61;21.34
51315;BME280;65787;59.922;10.742;2023-03-19T08:32:42;100701.00;;;26.50;21.52
51315;BME280;65787;59.922;10.742;2023-03-19T08:35:11;100704.06;;;26.73;21.16
51315;BME280;65787;59.922;10.742;2023-03-19T08:37:36;100698.22;;;26.74;21.05
51315;BME280;65787;59.922;10.742;2023-03-19T08:40:02;100701.50;;;26.76;21.16
51315;BME280;65787;59.922;10.742;2023-03-19T08:42:29;100705.69;;;26.74;21.11
51315;BME280;65787;59.922;10.742;2023-03-19T08:44:54;100710.09;;;26.75;21.07
51315;BME280;65787;59.922;10.742;2023-03-19T08:47:20;100702.84;;;26.79;21.09
51315;BME280;65787;59.922;10.742;2023-03-19T08:49:51;100703.44;;;26.76;21.11
51315;BME280;65787;59.922;10.742;2023-03-19T08:52:18;100700.22;;;26.69;21.13
51315;BME280;65787;59.922;10.742;2023-03-19T08:54:45;100699.34;;;26.73;20.90
51315;BME280;65787;59.922;10.742;2023-03-19T08:57:10;100692.06;;;26.82;21.00
51315;BME280;65787;59.922;10.742;2023-03-19T08:59:36;100679.16;;;26.78;20.92
51315;BME280;65787;59.922;10.742;2023-03-19T09:02:01;100644.66;;;26.61;21.13
51315;BME280;65787;59.922;10.742;2023-03-19T09:04:27;100672.31;;;26.94;20.91
51315;BME280;65787;59.922;10.742;2023-03-19T09:06:53;100672.53;;;26.98;20.77
51315;BME280;65787;59.922;10.742;2023-03-19T09:09:20;100669.84;;;26.93;20.89
51315;BME280;65787;59.922;10.742;2023-03-19T09:11:46;100674.56;;;26.92;20.87
51315;BME280;65787;59.922;10.742;2023-03-19T09:14:12;100671.06;;;26.87;20.81
51315;BME280;65787;59.922;10.742;2023-03-19T09:16:41;100673.22;;;26.90;20.81
51315;BME280;65787;59.922;10.742;2023-03-19T09:19:07;100669.56;;;26.75;20.78
51315;BME280;65787;59.922;10.742;2023-03-19T09:21:35;100678.22;;;26.88;20.83
51315;BME280;65787;59.922;10.742;2023-03-19T09:24:01;100671.94;;;27.01;20.61
51315;BME280;65787;59.922;10.742;2023-03-19T09:26:27;100675.59;;;26.96;20.58
51315;BME280;65787;59.922;10.742;2023-03-19T09:28:53;100664.56;;;26.96;20.69
51315;BME280;65787;59.922;10.742;2023-03-19T09:31:18;100657.19;;;26.92;20.59
51315;BME280;65787;59.922;10.742;2023-03-19T09:33:43;100663.53;;;26.92;20.60
51315;BME280;65787;59.922;10.742;2023-03-19T09:36:09;100676.03;;;27.03;20.61
51315;BME280;65787;59.922;10.742;2023-03-19T09:38:34;100673.44;;;27.12;20.58
51315;BME280;65787;59.922;10.742;2023-03-19T09:46:17;100666.56;;;27.10;20.38
51315;BME280;65787;59.922;10.742;2023-03-19T09:48:51;100670.50;;;27.03;20.54
51315;BME280;65787;59.922;10.742;2023-03-19T09:51:28;100671.69;;;27.16;20.44
51315;BME280;65787;59.922;10.742;2023-03-19T09:54:00;100667.84;;;27.17;20.27
51315;BME280;65787;59.922;10.742;2023-03-19T09:56:30;100660.16;;;27.14;20.54
51315;BME280;65787;59.922;10.742;2023-03-19T09:58:57;100656.06;;;27.12;20.26
51315;BME280;65787;59.922;10.742;2023-03-19T10:01:30;100655.47;;;26.96;20.43
51315;BME280;65787;59.922;10.742;2023-03-19T10:04:18;100673.50;;;27.07;20.60
51315;BME280;65787;59.922;10.742;2023-03-19T10:07:03;100673.34;;;27.17;20.52
51315;BME280;65787;59.922;10.742;2023-03-19T10:09:41;100667.16;;;27.26;21.75
51315;BME280;65787;59.922;10.742;2023-03-19T10:12:25;100682.13;;;27.19;22.19
51315;BME280;65787;59.922;10.742;2023-03-19T10:15:18;100676.31;;;27.21;22.47
51315;BME280;65787;59.922;10.742;2023-03-19T10:17:49;100674.06;;;27.42;22.88
51315;BME280;65787;59.922;10.742;2023-03-19T10:20:45;100681.56;;;27.55;22.83
51315;BME280;65787;59.922;10.742;2023-03-19T10:25:40;100676.31;;;27.40;23.41
51315;BME280;65787;59.922;10.742;2023-03-19T10:28:15;100679.88;;;27.40;23.57
51315;BME280;65787;59.922;10.742;2023-03-19T10:30:41;100673.34;;;27.36;23.51
51315;BME280;65787;59.922;10.742;2023-03-19T10:33:25;100689.81;;;27.41;23.62
51315;BME280;65787;59.922;10.742;2023-03-19T10:36:01;100651.19;;;27.22;23.55
51315;BME280;65787;59.922;10.742;2023-03-19T10:38:28;100680.53;;;27.51;23.58
51315;BME280;65787;59.922;10.742;2023-03-19T10:43:27;100668.63;;;27.37;23.41
51315;BME280;65787;59.922;10.742;2023-03-19T10:45:56;100664.84;;;27.33;23.36
51315;BME280;65787;59.922;10.742;2023-03-19T10:48:24;100658.44;;;27.18;23.32
51315;BME280;65787;59.922;10.742;2023-03-19T10:51:00;100670.28;;;27.38;23.09
51315;BME280;65787;59.922;10.742;2023-03-19T10:53:27;100668.88;;;27.54;23.70
51315;BME280;65787;59.922;10.742;2023-03-19T10:56:20;100677.00;;;27.78;26.01
51315;BME280;65787;59.922;10.742;2023-03-19T10:58:57;100672.13;;;27.89;27.09
51315;BME280;65787;59.922;10.742;2023-03-19T11:01:27;100671.09;;;27.71;27.53
51315;BME280;65787;59.922;10.742;2023-03-19T11:03:57;100675.25;;;27.69;27.73
51315;BME280;65787;59.922;10.742;2023-03-19T11:08:57;100666.88;;;27.74;27.72
51315;BME280;65787;59.922;10.742;2023-03-19T11:11:25;100664.03;;;27.79;27.57
51315;BME280;65787;59.922;10.742;2023-03-19T11:13:51;100668.31;;;27.85;27.80
51315;BME280;65787;59.922;10.742;2023-03-19T11:16:17;100645.09;;;27.72;27.83
51315;BME280;65787;59.922;10.742;2023-03-19T11:18:46;100658.84;;;27.91;27.46
51315;BME280;65787;59.922;10.742;2023-03-19T11:21:22;100655.81;;;28.07;27.33
51315;BME280;65787;59.922;10.742;2023-03-19T11:23:53;100609.75;;;27.74;27.51
51315;BME280;65787;59.922;10.742;2023-03-19T11:26:22;100659.69;;;28.06;27.28
51315;BME280;65787;59.922;10.742;2023-03-19T11:28:52;100649.78;;;28.05;27.60
51315;BME280;65787;59.922;10.742;2023-03-19T11:31:25;100657.13;;;28.09;27.48
51315;BME280;65787;59.922;10.742;2023-03-19T11:37:03;100667.53;;;27.98;27.59
51315;BME280;65787;59.922;10.742;2023-03-19T11:39:36;100662.22;;;28.02;27.52
51315;BME280;65787;59.922;10.742;2023-03-19T11:42:25;100661.63;;;28.05;27.65
51315;BME280;65787;59.922;10.742;2023-03-19T11:45:00;100659.97;;;28.04;27.37
51315;BME280;65787;59.922;10.742;2023-03-19T11:53:22;100662.75;;;28.18;27.25
51315;BME280;65787;59.922;10.742;2023-03-19T11:56:20;100655.59;;;28.17;27.03
51315;BME280;65787;59.922;10.742;2023-03-19T12:02:29;100664.59;;;28.09;26.91
51315;BME280;65787;59.922;10.742;2023-03-19T12:05:17;100646.78;;;28.15;27.06
51315;BME280;65787;59.922;10.742;2023-03-19T12:08:12;100645.69;;;28.16;26.83
51315;BME280;65787;59.922;10.742;2023-03-19T12:10:58;100634.22;;;28.09;27.11
